Time;durP1;ratioP1;P1;durP2;ratioP2;P2;SDS_P1;SDS_P2;PMS_P1;PMS_P2;Temp;Humidity;BMP_temperature;BMP_pressure;BME280_temperature;BME280_humidity;BME280_pressure;Samples;Min_cycle;Max_cycle;Signal;HPM_P1;HPM_P2
2022/06/06 00:02:18;;;;;;;3.30;0.80;;;16.50;87.80;;;;;;5003709;28;20279;-74
2022/06/06 00:04:44;;;;;;;3.10;0.70;;;16.60;87.10;;;;;;4987275;28;20200;-73
2022/06/06 00:07:10;;;;;;;0.97;0.60;;;16.50;86.50;;;;;;5018875;28;20217;-73
2022/06/06 00:09:35;;;;;;;3.00;0.80;;;16.60;86.10;;;;;;5019117;28;20191;-73
2022/06/06 00:12:03;;;;;;;1.60;0.43;;;16.50;86.90;;;;;;5014366;28;20194;-74
2022/06/06 00:14:29;;;;;;;0.73;0.63;;;16.70;84.50;;;;;;5020574;28;20187;-74
2022/06/06 00:16:55;;;;;;;1.20;1.10;;;16.70;84.70;;;;;;5029411;28;20278;-74
2022/06/06 00:19:21;;;;;;;0.70;0.60;;;16.70;86.60;;;;;;5002816;28;20191;-72
2022/06/06 00:21:48;;;;;;;1.20;0.83;;;16.70;85.80;;;;;;5008927;28;20263;-71
2022/06/06 00:24:14;;;;;;;4.27;0.77;;;16.80;86.30;;;;;;5018913;28;20192;-71
2022/06/06 00:26:42;;;;;;;1.90;0.60;;;16.70;87.80;;;;;;5014276;28;20219;-71
2022/06/06 00:29:08;;;;;;;1.50;0.70;;;16.70;89.00;;;;;;5022240;28;20183;-70
2022/06/06 00:37:07;;;;;;;1.70;1.00;;;16.60;90.80;;;;;;5009157;28;20200;-73
2022/06/06 00:39:33;;;;;;;2.07;0.60;;;16.60;91.20;;;;;;5023782;28;20199;-73
2022/06/06 00:41:59;;;;;;;4.73;0.97;;;16.60;91.50;;;;;;5013820;28;20196;-73
2022/06/06 00:44:33;;;;;;;3.23;1.10;;;16.60;91.70;;;;;;5012518;28;20203;-72
2022/06/06 00:47:24;;;;;;;2.27;0.60;;;16.50;91.90;;;;;;5023859;28;20206;-73
2022/06/06 00:49:58;;;;;;;2.93;0.93;;;16.50;91.90;;;;;;5030421;28;20209;-73
2022/06/06 00:52:35;;;;;;;1.40;0.67;;;16.40;92.20;;;;;;5036619;28;20248;-73
2022/06/06 00:55:06;;;;;;;3.80;0.70;;;16.40;92.30;;;;;;5063071;28;20235;-71
2022/06/06 00:57:34;;;;;;;2.33;0.73;;;16.40;92.40;;;;;;5045710;28;20190;-71
2022/06/06 01:00:18;;;;;;;1.53;0.87;;;16.40;92.70;;;;;;5036689;28;20194;-71
2022/06/06 01:02:49;;;;;;;2.93;0.70;;;16.30;92.80;;;;;;5050203;28;20216;-71
2022/06/06 01:05:15;;;;;;;1.50;0.73;;;16.30;92.90;;;;;;5053758;28;20211;-71
2022/06/06 01:07:41;;;;;;;1.37;0.80;;;16.30;93.00;;;;;;5067401;28;20178;-71
2022/06/06 01:10:08;;;;;;;1.50;0.63;;;16.30;93.20;;;;;;5033463;28;20205;-71
2022/06/06 01:12:34;;;;;;;4.10;0.90;;;16.30;93.30;;;;;;5022663;28;20195;-73
2022/06/06 01:15:05;;;;;;;0.83;0.77;;;16.30;93.10;;;;;;5025933;28;20244;-73
2022/06/06 01:17:44;;;;;;;3.00;0.93;;;16.30;93.20;;;;;;5034320;28;20206;-73
2022/06/06 01:20:31;;;;;;;2.00;0.87;;;16.30;93.20;;;;;;5060993;28;20539;-73
2022/06/06 01:23:18;;;;;;;6.13;0.93;;;16.30;93.20;;;;;;5040498;28;20183;-73
2022/06/06 01:26:21;;;;;;;1.00;0.70;;;16.30;93.00;;;;;;5036375;28;20324;-74
2022/06/06 01:28:59;;;;;;;3.27;1.00;;;16.30;92.90;;;;;;5036082;28;20185;-76
2022/06/06 01:31:43;;;;;;;1.87;0.87;;;16.30;93.10;;;;;;5025070;28;20273;-76
2022/06/06 01:34:11;;;;;;;1.60;0.87;;;16.30;93.00;;;;;;5053320;28;20182;-76
2022/06/06 01:36:39;;;;;;;1.93;1.33;;;16.30;92.90;;;;;;5016211;28;20239;-76
2022/06/06 01:39:09;;;;;;;4.83;1.43;;;16.30;93.00;;;;;;5043207;28;20186;-76
2022/06/06 01:42:02;;;;;;;3.10;1.00;;;16.30;92.90;;;;;;5036804;28;20187;-76
2022/06/06 01:44:43;;;;;;;2.63;1.03;;;16.30;92.30;;;;;;5033633;28;20183;-71
2022/06/06 01:47:12;;;;;;;2.07;0.83;;;16.30;92.60;;;;;;5044923;28;20214;-72
2022/06/06 01:49:40;;;;;;;1.00;0.80;;;16.30;92.80;;;;;;5024247;28;20187;-72
2022/06/06 01:52:10;;;;;;;5.47;1.10;;;16.40;93.00;;;;;;5048394;28;20334;-72
2022/06/06 01:54:36;;;;;;;2.87;0.73;;;16.40;93.10;;;;;;5050358;28;20228;-72
2022/06/06 01:57:04;;;;;;;1.43;0.87;;;16.40;93.30;;;;;;5057292;28;20186;-73
2022/06/06 01:59:30;;;;;;;2.77;1.03;;;16.40;93.40;;;;;;5024629;28;20198;-73
2022/06/06 02:01:56;;;;;;;2.30;1.00;;;16.40;93.40;;;;;;5042404;28;20187;-73
2022/06/06 02:04:22;;;;;;;1.27;0.90;;;16.40;93.40;;;;;;5041997;28;20286;-73
2022/06/06 02:06:47;;;;;;;3.13;1.07;;;16.40;93.20;;;;;;5040078;28;20213;-73
2022/06/06 02:09:14;;;;;;;1.43;0.73;;;16.40;93.40;;;;;;5041231;28;20193;-73
2022/06/06 02:11:39;;;;;;;2.73;1.17;;;16.40;93.40;;;;;;5032780;28;20182;-73
2022/06/06 02:14:06;;;;;;;2.93;1.00;;;16.40;93.50;;;;;;5038020;28;20182;-73
2022/06/06 02:16:32;;;;;;;1.57;1.10;;;16.40;93.50;;;;;;5039500;28;20193;-73
2022/06/06 02:18:58;;;;;;;1.80;0.73;;;16.40;93.60;;;;;;5045663;28;20186;-73
2022/06/06 02:21:24;;;;;;;0.93;0.90;;;16.40;93.80;;;;;;5020852;28;20226;-73
2022/06/06 02:23:49;;;;;;;1.93;1.00;;;16.40;93.90;;;;;;5028859;28;20195;-73
2022/06/06 02:26:16;;;;;;;7.27;1.20;;;16.40;93.80;;;;;;5007019;28;20274;-73
2022/06/06 02:28:42;;;;;;;1.27;1.00;;;16.40;93.90;;;;;;5038991;28;20182;-73
2022/06/06 02:31:08;;;;;;;1.40;1.00;;;16.30;93.90;;;;;;5026751;28;20186;-73
2022/06/06 02:33:35;;;;;;;1.10;1.00;;;16.40;93.90;;;;;;5049766;28;20190;-74
2022/06/06 02:36:01;;;;;;;4.60;1.23;;;16.30;93.80;;;;;;5055620;28;20245;-75
2022/06/06 02:38:28;;;;;;;1.73;1.20;;;16.30;93.90;;;;;;5032507;28;20219;-74
2022/06/06 02:40:54;;;;;;;2.70;1.13;;;16.30;93.80;;;;;;5030002;28;20201;-74
2022/06/06 02:43:21;;;;;;;1.87;1.00;;;16.30;93.80;;;;;;5029841;28;20270;-74
2022/06/06 02:45:50;;;;;;;3.77;1.03;;;16.30;93.90;;;;;;5049941;28;20237;-74
2022/06/06 02:48:16;;;;;;;3.13;1.07;;;16.30;94.00;;;;;;5033453;28;20245;-74
2022/06/06 02:50:43;;;;;;;1.10;1.00;;;16.30;94.10;;;;;;5023864;28;20194;-75
2022/06/06 02:53:09;;;;;;;2.40;1.00;;;16.30;94.20;;;;;;5073308;28;20182;-74
2022/06/06 02:55:35;;;;;;;2.23;1.10;;;16.30;94.30;;;;;;5028096;28;20187;-74
2022/06/06 02:58:01;;;;;;;2.70;1.27;;;16.30;94.10;;;;;;5032288;28;20190;-73
2022/06/06 03:00:31;;;;;;;2.33;1.20;;;16.30;94.20;;;;;;5031394;28;20193;-73
2022/06/06 03:02:58;;;;;;;3.97;1.67;;;16.30;94.30;;;;;;5055063;28;20294;-73
2022/06/06 03:05:37;;;;;;;3.37;1.50;;;16.30;94.30;;;;;;5033296;28;20215;-75
2022/06/06 03:08:19;;;;;;;1.77;1.30;;;16.30;94.30;;;;;;5039091;28;20185;-71
2022/06/06 03:11:10;;;;;;;1.40;1.13;;;16.30;94.30;;;;;;5051593;28;20278;-71
2022/06/06 03:14:16;;;;;;;2.10;1.23;;;16.30;94.40;;;;;;5043005;28;20187;-71
2022/06/06 03:23:14;;;;;;;1.07;1.00;;;16.30;94.40;;;;;;5040902;28;20193;-70
2022/06/06 03:26:05;;;;;;;1.77;1.17;;;16.30;94.40;;;;;;5042050;28;20219;-70
2022/06/06 03:28:52;;;;;;;2.63;1.60;;;16.30;94.40;;;;;;5010288;28;20215;-70
2022/06/06 03:31:26;;;;;;;1.70;1.10;;;16.30;94.30;;;;;;5037955;28;20207;-70
2022/06/06 03:34:13;;;;;;;1.40;1.30;;;16.30;94.30;;;;;;5025542;28;20182;-70
2022/06/06 03:36:55;;;;;;;1.53;1.23;;;16.30;94.30;;;;;;5021112;28;20197;-70
2022/06/06 03:39:35;;;;;;;1.77;1.27;;;16.30;94.40;;;;;;5040199;28;20214;-70
2022/06/06 03:42:37;;;;;;;2.00;1.20;;;16.30;94.50;;;;;;5037964;28;20245;-69
2022/06/06 03:45:11;;;;;;;1.37;1.20;;;16.30;94.40;;;;;;5019724;28;20230;-68
2022/06/06 03:47:56;;;;;;;4.07;1.23;;;16.30;94.30;;;;;;5034748;28;20193;-68
2022/06/06 03:50:50;;;;;;;3.90;1.30;;;16.40;94.40;;;;;;5045640;28;20196;-68
2022/06/06 03:53:22;;;;;;;1.27;1.17;;;16.40;94.50;;;;;;5033888;28;20214;-68
2022/06/06 03:56:25;;;;;;;1.87;1.23;;;16.50;94.70;;;;;;5042446;28;20190;-68
2022/06/06 03:58:53;;;;;;;1.77;1.30;;;16.50;94.50;;;;;;5035083;28;20187;-69
2022/06/06 04:01:21;;;;;;;2.70;1.10;;;16.50;94.40;;;;;;5025703;28;20193;-68
2022/06/06 04:03:49;;;;;;;2.73;1.03;;;16.50;94.50;;;;;;5028315;28;20192;-72
2022/06/06 04:06:17;;;;;;;2.67;1.60;;;16.50;94.60;;;;;;5020400;28;20199;-71
2022/06/06 04:08:43;;;;;;;1.73;1.20;;;16.50;94.50;;;;;;5026332;28;20488;-72
2022/06/06 04:11:28;;;;;;;1.67;1.20;;;16.50;94.50;;;;;;5023326;28;20187;-71
2022/06/06 04:14:29;;;;;;;1.93;1.00;;;16.50;94.40;;;;;;5023305;28;20187;-72
2022/06/06 04:17:22;;;;;;;2.13;1.17;;;16.50;94.40;;;;;;5022221;28;20181;-72
2022/06/06 04:19:56;;;;;;;2.07;1.50;;;16.50;94.30;;;;;;5036709;28;20195;-72
2022/06/06 04:22:31;;;;;;;3.80;1.43;;;16.50;94.20;;;;;;5041864;28;20189;-75
2022/06/06 04:25:22;;;;;;;2.40;1.30;;;16.50;94.00;;;;;;5030049;28;20194;-71
2022/06/06 04:28:14;;;;;;;3.20;1.53;;;16.50;94.20;;;;;;5055835;28;20198;-72
2022/06/06 04:30:43;;;;;;;1.40;1.23;;;16.60;94.40;;;;;;5034042;28;20187;-70
2022/06/06 04:33:22;;;;;;;2.23;1.23;;;16.60;94.20;;;;;;5025415;28;20244;-70
2022/06/06 04:35:59;;;;;;;0.90;0.90;;;16.60;94.20;;;;;;5045643;28;20201;-70
2022/06/06 04:38:28;;;;;;;4.10;1.90;;;16.60;93.80;;;;;;5036773;28;20189;-71
2022/06/06 04:41:15;;;;;;;3.90;1.40;;;16.60;93.70;;;;;;5054747;28;20207;-71
2022/06/06 04:43:52;;;;;;;3.17;1.00;;;16.60;93.00;;;;;;5042169;28;20200;-68
2022/06/06 04:46:35;;;;;;;2.60;1.30;;;16.70;93.40;;;;;;5051123;28;20225;-69
2022/06/06 04:49:02;;;;;;;3.40;1.20;;;16.70;93.50;;;;;;5035983;28;20190;-67
2022/06/06 04:51:30;;;;;;;4.37;1.67;;;16.80;93.80;;;;;;5017476;28;20198;-66
2022/06/06 04:53:57;;;;;;;5.70;1.40;;;16.80;93.80;;;;;;5018341;28;20179;-66
2022/06/06 04:56:24;;;;;;;1.83;1.10;;;16.80;93.50;;;;;;5019340;28;20202;-67
2022/06/06 04:58:53;;;;;;;4.53;1.50;;;16.80;93.30;;;;;;5033717;28;20217;-67
2022/06/06 05:01:20;;;;;;;1.77;1.50;;;16.80;93.20;;;;;;5026143;28;20189;-67
2022/06/06 05:03:45;;;;;;;2.97;1.60;;;16.80;92.90;;;;;;5034675;28;20229;-68
2022/06/06 05:06:42;;;;;;;2.33;1.40;;;16.80;92.20;;;;;;5027763;28;20228;-68
2022/06/06 05:09:16;;;;;;;2.87;1.40;;;16.80;92.30;;;;;;5045802;28;20179;-68
2022/06/06 05:12:36;;;;;;;5.13;2.07;;;16.80;92.60;;;;;;5051673;28;20185;-67
2022/06/06 05:15:11;;;;;;;4.33;2.13;;;16.80;92.00;;;;;;5041187;28;20179;-67
2022/06/06 05:17:59;;;;;;;2.57;1.70;;;16.80;91.80;;;;;;5036384;28;20178;-67
2022/06/06 05:20:44;;;;;;;6.00;1.90;;;16.80;91.70;;;;;;5033380;28;20183;-67
2022/06/06 05:23:25;;;;;;;3.60;1.80;;;16.80;91.80;;;;;;5035583;28;20186;-67
2022/06/06 05:26:13;;;;;;;3.40;1.83;;;16.80;92.10;;;;;;5030990;28;20700;-66
2022/06/06 05:28:48;;;;;;;1.93;1.43;;;16.80;92.10;;;;;;5046100;28;20217;-66
2022/06/06 05:31:37;;;;;;;3.23;1.47;;;16.80;92.20;;;;;;5039603;28;20221;-66
2022/06/06 05:34:12;;;;;;;6.23;2.03;;;16.80;92.40;;;;;;5057197;28;20179;-66
2022/06/06 05:37:03;;;;;;;4.03;1.57;;;16.80;92.30;;;;;;5024508;28;20183;-66
2022/06/06 05:39:52;;;;;;;2.43;1.67;;;16.80;92.40;;;;;;5038715;28;20262;-66
2022/06/06 05:42:26;;;;;;;2.77;1.80;;;16.80;92.50;;;;;;5022135;28;20305;-66
2022/06/06 05:45:07;;;;;;;2.93;2.17;;;16.80;92.60;;;;;;5040545;28;20348;-66
2022/06/06 05:48:18;;;;;;;4.27;1.50;;;16.80;92.50;;;;;;5031483;28;20199;-65
2022/06/06 05:50:58;;;;;;;2.67;1.77;;;16.80;92.50;;;;;;5039852;28;20193;-65
2022/06/06 05:53:38;;;;;;;3.80;1.47;;;16.80;92.70;;;;;;5039362;28;20175;-67
2022/06/06 05:56:41;;;;;;;4.07;2.80;;;16.90;92.80;;;;;;5034869;28;20218;-66
2022/06/06 05:59:18;;;;;;;2.53;1.60;;;16.90;92.80;;;;;;5014979;28;20191;-67
2022/06/06 06:01:49;;;;;;;3.60;1.93;;;17.00;93.00;;;;;;5023849;28;20274;-67
2022/06/06 06:04:33;;;;;;;1.50;1.40;;;17.00;92.50;;;;;;5035233;28;20191;-67
2022/06/06 06:07:08;;;;;;;3.67;1.60;;;17.10;91.90;;;;;;5045901;28;20314;-66
2022/06/06 06:09:47;;;;;;;7.00;1.43;;;17.10;91.90;;;;;;5046563;28;20329;-66
2022/06/06 06:12:45;;;;;;;3.40;1.57;;;17.20;92.10;;;;;;5027890;28;20190;-67
2022/06/06 06:15:36;;;;;;;2.33;1.20;;;17.30;90.50;;;;;;5021727;28;20214;-68
2022/06/06 06:18:16;;;;;;;1.57;1.37;;;17.30;90.60;;;;;;5037372;28;20269;-64
2022/06/06 06:20:51;;;;;;;3.27;1.53;;;17.30;91.10;;;;;;5033865;28;20182;-63
2022/06/06 06:23:24;;;;;;;1.50;1.30;;;17.30;90.60;;;;;;5057401;28;20233;-63
2022/06/06 06:25:51;;;;;;;1.53;1.40;;;17.40;89.80;;;;;;5044502;28;20284;-63
2022/06/06 06:28:16;;;;;;;2.50;1.40;;;17.40;90.60;;;;;;5054417;28;20185;-65
2022/06/06 06:31:05;;;;;;;3.40;1.60;;;17.50;90.70;;;;;;5022917;28;20187;-64
2022/06/06 06:33:51;;;;;;;2.60;1.20;;;17.60;90.20;;;;;;5044583;28;20550;-63
2022/06/06 06:36:23;;;;;;;1.90;1.43;;;17.70;90.50;;;;;;5031010;28;20182;-63
2022/06/06 06:39:17;;;;;;;1.73;1.20;;;17.80;90.80;;;;;;5041636;28;20274;-66
2022/06/06 06:42:03;;;;;;;2.90;1.70;;;17.90;90.60;;;;;;5038970;28;20195;-65
2022/06/06 06:44:40;;;;;;;1.60;1.23;;;17.90;90.70;;;;;;5050960;28;20202;-64
2022/06/06 06:47:16;;;;;;;1.40;1.30;;;18.00;89.70;;;;;;5041657;28;20213;-63
2022/06/06 06:49:50;;;;;;;1.77;1.60;;;18.00;89.70;;;;;;5047967;28;20181;-64
2022/06/06 06:52:38;;;;;;;1.53;1.27;;;18.10;89.80;;;;;;5033833;28;20213;-63
2022/06/06 06:55:16;;;;;;;2.50;2.27;;;18.20;87.00;;;;;;5048159;28;20185;-63
2022/06/06 06:58:14;;;;;;;4.47;2.50;;;18.30;86.00;;;;;;5031465;28;20241;-63
2022/06/06 07:01:01;;;;;;;3.03;2.00;;;18.40;87.80;;;;;;5045633;28;20187;-63
2022/06/06 07:09:50;;;;;;;1.57;1.40;;;18.50;89.40;;;;;;4993846;28;20197;-63
2022/06/06 07:12:24;;;;;;;4.33;1.80;;;18.50;88.90;;;;;;5043033;28;20232;-63
2022/06/06 07:15:10;;;;;;;1.60;1.50;;;18.60;87.10;;;;;;5046850;28;20181;-63
2022/06/06 07:17:58;;;;;;;1.43;1.33;;;18.60;86.50;;;;;;5038464;28;20182;-62
2022/06/06 07:20:26;;;;;;;2.47;1.53;;;18.60;86.70;;;;;;5052829;28;20265;-63
2022/06/06 07:23:02;;;;;;;3.83;1.23;;;18.70;86.50;;;;;;5052025;28;20183;-63
2022/06/06 07:25:42;;;;;;;1.33;1.17;;;18.70;85.60;;;;;;5059066;28;20229;-61
2022/06/06 07:28:26;;;;;;;1.63;1.37;;;18.70;86.20;;;;;;5066388;28;20178;-62
2022/06/06 07:31:07;;;;;;;3.97;1.13;;;18.60;86.80;;;;;;5029420;28;20191;-63
2022/06/06 07:33:48;;;;;;;1.67;1.27;;;18.60;87.60;;;;;;5060845;28;20188;-64
2022/06/06 07:36:29;;;;;;;1.47;1.30;;;18.70;86.00;;;;;;5038607;28;20216;-63
2022/06/06 07:39:18;;;;;;;1.73;1.23;;;18.70;84.60;;;;;;5048989;28;20213;-63
2022/06/06 07:41:59;;;;;;;2.60;1.23;;;18.70;86.50;;;;;;5028065;28;20195;-63
2022/06/06 07:44:47;;;;;;;1.80;1.00;;;18.70;85.90;;;;;;5053948;28;20256;-62
2022/06/06 07:47:32;;;;;;;6.93;1.50;;;18.70;87.00;;;;;;4992203;28;20238;-63
2022/06/06 07:50:06;;;;;;;2.60;1.20;;;18.70;86.50;;;;;;5036678;28;20187;-63
2022/06/06 07:52:55;;;;;;;1.10;1.00;;;18.80;86.70;;;;;;5043002;28;20269;-64
2022/06/06 07:55:28;;;;;;;3.67;1.30;;;18.70;86.90;;;;;;5043814;28;20182;-64
2022/06/06 07:58:10;;;;;;;1.33;1.23;;;18.80;83.60;;;;;;5036593;28;20240;-63
2022/06/06 08:00:37;;;;;;;1.20;1.10;;;18.90;85.10;;;;;;5042325;28;20197;-65
2022/06/06 08:03:13;;;;;;;0.90;0.90;;;18.90;84.70;;;;;;5032156;28;20220;-64
2022/06/06 08:06:08;;;;;;;2.37;1.50;;;18.90;86.70;;;;;;5046112;28;20231;-65
2022/06/06 08:08:45;;;;;;;3.63;1.20;;;18.90;88.00;;;;;;5058958;28;20174;-63
2022/06/06 08:11:17;;;;;;;2.13;1.27;;;18.90;88.30;;;;;;5029840;28;20181;-64
2022/06/06 08:14:22;;;;;;;2.47;1.40;;;19.00;84.60;;;;;;5032581;28;20245;-61
2022/06/06 08:17:04;;;;;;;24.13;6.10;;;19.20;84.00;;;;;;5001926;28;20190;-67
2022/06/06 08:19:38;;;;;;;2.03;1.30;;;19.30;84.50;;;;;;5053642;28;20182;-66
2022/06/06 08:22:05;;;;;;;1.13;1.03;;;19.20;83.10;;;;;;5054177;28;20185;-66
2022/06/06 08:24:43;;;;;;;1.53;1.30;;;19.30;85.40;;;;;;5064019;28;20193;-66
2022/06/06 08:27:15;;;;;;;2.53;1.43;;;19.30;85.70;;;;;;5044381;28;20222;-66
2022/06/06 08:29:43;;;;;;;1.60;1.50;;;19.30;84.50;;;;;;5024256;28;20209;-66
2022/06/06 08:32:09;;;;;;;1.23;1.03;;;19.30;84.40;;;;;;5039818;28;20193;-66
2022/06/06 08:34:35;;;;;;;2.60;1.67;;;19.30;86.00;;;;;;5024299;28;20179;-68
2022/06/06 08:37:13;;;;;;;2.50;1.20;;;19.40;87.60;;;;;;5011285;28;20194;-66
2022/06/06 08:40:16;;;;;;;2.60;1.50;;;19.40;86.70;;;;;;5029055;28;20277;-66
2022/06/06 08:43:03;;;;;;;1.93;1.20;;;19.50;83.50;;;;;;5041999;28;20202;-76
2022/06/06 08:45:47;;;;;;;2.60;1.17;;;20.20;82.20;;;;;;5014547;28;20255;-79
2022/06/06 08:53:16;;;;;;;2.87;1.60;;;21.00;80.80;;;;;;5079630;28;20193;-70
2022/06/06 08:55:54;;;;;;;2.73;1.20;;;21.20;75.50;;;;;;5072862;28;20173;-72
2022/06/06 08:58:47;;;;;;;2.47;1.37;;;21.30;78.10;;;;;;5085016;28;20180;-70
2022/06/06 09:01:16;;;;;;;1.40;1.30;;;21.30;73.40;;;;;;5075712;28;20194;-74
2022/06/06 09:04:19;;;;;;;2.87;1.10;;;21.30;72.90;;;;;;5085604;28;20185;-72
2022/06/06 09:07:03;;;;;;;3.93;1.10;;;21.70;70.60;;;;;;5085482;28;20185;-74
2022/06/06 09:09:51;;;;;;;6.27;1.30;;;21.70;70.60;;;;;;5078871;28;20215;-75
2022/06/06 09:12:29;;;;;;;3.87;1.70;;;21.80;70.70;;;;;;5072482;28;20177;-75
2022/06/06 09:15:20;;;;;;;2.23;1.20;;;22.00;72.60;;;;;;5078413;28;20178;-75
2022/06/06 09:18:10;;;;;;;2.50;1.50;;;22.30;71.00;;;;;;5071806;28;20189;-77
2022/06/06 09:20:35;;;;;;;3.00;1.70;;;22.50;70.10;;;;;;5070105;28;20206;-76
2022/06/06 09:23:30;;;;;;;2.67;1.20;;;22.40;69.20;;;;;;5072574;28;20214;-78
2022/06/06 09:26:23;;;;;;;1.60;1.50;;;22.60;66.50;;;;;;5049330;28;20201;-76
2022/06/06 09:29:13;;;;;;;2.70;1.10;;;22.70;66.30;;;;;;5085488;28;20209;-77
2022/06/06 09:32:16;;;;;;;6.97;1.30;;;22.80;66.30;;;;;;5076718;28;20181;-77
2022/06/06 09:35:19;;;;;;;1.40;1.20;;;22.90;64.00;;;;;;5075468;28;20185;-77
2022/06/06 09:38:25;;;;;;;1.30;1.20;;;23.00;66.10;;;;;;5086840;28;20193;-78
2022/06/06 09:41:20;;;;;;;1.53;1.10;;;23.20;69.20;;;;;;5084361;28;20683;-76
2022/06/06 09:44:07;;;;;;;1.20;1.10;;;23.50;64.80;;;;;;5085010;28;20197;-78
2022/06/06 09:46:42;;;;;;;4.13;1.40;;;23.80;62.80;;;;;;5078464;28;20197;-76
2022/06/06 09:49:47;;;;;;;3.83;1.60;;;24.10;65.70;;;;;;5075858;28;20228;-76
2022/06/06 09:52:41;;;;;;;1.70;1.20;;;24.00;66.40;;;;;;5082528;28;20182;-76
2022/06/06 09:59:03;;;;;;;2.30;1.67;;;23.60;67.70;;;;;;5077012;28;20297;-76
2022/06/06 10:01:37;;;;;;;2.50;1.33;;;23.40;68.00;;;;;;5065236;28;20174;-76
2022/06/06 10:04:24;;;;;;;2.07;1.73;;;23.30;66.20;;;;;;5067501;28;20235;-75
2022/06/06 10:07:10;;;;;;;1.97;1.60;;;23.20;63.40;;;;;;5058748;28;20197;-77
2022/06/06 10:09:55;;;;;;;1.57;1.13;;;23.50;66.10;;;;;;5074857;28;20205;-75
2022/06/06 10:12:44;;;;;;;1.37;1.10;;;23.80;62.00;;;;;;5071793;28;20182;-74
2022/06/06 10:15:32;;;;;;;4.80;1.80;;;24.20;62.60;;;;;;5069165;28;20182;-78
2022/06/06 10:18:18;;;;;;;2.77;1.30;;;24.30;65.20;;;;;;5068197;28;20179;-77
2022/06/06 10:21:05;;;;;;;8.80;2.63;;;24.30;61.80;;;;;;5056884;28;20217;-77
2022/06/06 10:23:56;;;;;;;4.03;2.57;;;24.50;63.60;;;;;;5056838;28;20242;-78
2022/06/06 10:26:37;;;;;;;11.63;10.70;;;24.80;62.20;;;;;;5101870;28;20265;-79
2022/06/06 10:29:25;;;;;;;9.10;7.70;;;25.00;64.00;;;;;;5056936;28;20213;-77
2022/06/06 10:31:54;;;;;;;2.13;2.03;;;25.30;64.70;;;;;;5064933;28;20178;-77
2022/06/06 10:34:35;;;;;;;10.90;9.57;;;25.70;61.70;;;;;;5067671;28;20184;-75
2022/06/06 10:37:16;;;;;;;4.27;2.37;;;25.70;62.30;;;;;;5065577;28;20174;-76
2022/06/06 10:39:53;;;;;;;1.60;1.40;;;25.70;59.30;;;;;;5068578;28;20182;-77
2022/06/06 10:42:57;;;;;;;2.97;1.50;;;25.30;57.70;;;;;;5066929;28;20177;-76
2022/06/06 10:45:31;;;;;;;2.03;1.60;;;25.40;58.60;;;;;;5057946;28;20197;-75
2022/06/06 10:48:29;;;;;;;1.60;1.33;;;25.70;56.30;;;;;;5069312;28;20232;-76
2022/06/06 10:54:18;;;;;;;3.27;1.30;;;26.20;56.00;;;;;;5068832;28;20188;-75
2022/06/06 10:56:50;;;;;;;6.97;5.23;;;26.50;56.30;;;;;;5061639;28;20215;-76
2022/06/06 10:59:36;;;;;;;3.33;1.40;;;26.70;55.80;;;;;;5073441;28;20267;-80
2022/06/06 11:02:49;;;;;;;2.70;1.57;;;26.00;53.20;;;;;;5067440;28;20243;-80
2022/06/06 11:05:39;;;;;;;2.37;1.20;;;26.30;51.00;;;;;;5040754;28;20193;-76
2022/06/06 11:08:42;;;;;;;2.57;1.33;;;26.50;51.60;;;;;;5062686;28;20210;-77
2022/06/06 11:11:23;;;;;;;3.13;1.57;;;26.30;53.70;;;;;;5057734;28;20190;-78
2022/06/06 11:13:48;;;;;;;9.03;3.10;;;26.70;53.70;;;;;;5060074;28;20234;-63
2022/06/06 11:16:54;;;;;;;2.87;1.20;;;27.30;57.70;;;;;;5054914;28;20186;-63
2022/06/06 11:19:31;;;;;;;3.43;1.77;;;27.90;50.80;;;;;;5056726;28;20285;-62
2022/06/06 11:22:15;;;;;;;4.63;1.57;;;27.90;52.20;;;;;;5070958;28;20189;-62
2022/06/06 11:24:45;;;;;;;2.33;1.37;;;28.00;47.70;;;;;;5065588;28;20181;-60
2022/06/06 11:27:32;;;;;;;2.20;1.37;;;27.90;47.90;;;;;;5060584;28;20189;-63
2022/06/06 11:30:14;;;;;;;2.13;1.30;;;27.80;48.10;;;;;;5062607;28;20177;-62
2022/06/06 11:32:58;;;;;;;2.70;1.50;;;27.80;56.10;;;;;;5058119;28;20185;-62
2022/06/06 11:35:40;;;;;;;2.10;1.17;;;28.00;57.30;;;;;;5060098;28;20174;-62
2022/06/06 11:38:23;;;;;;;2.50;1.40;;;28.30;55.00;;;;;;5061847;28;20181;-62
2022/06/06 11:41:07;;;;;;;2.80;1.30;;;28.40;54.20;;;;;;5053597;28;20190;-62
2022/06/06 11:43:42;;;;;;;2.13;1.50;;;28.70;52.60;;;;;;5061450;28;20206;-62
2022/06/06 11:46:10;;;;;;;3.30;1.63;;;29.00;47.50;;;;;;5068944;28;20200;-62
2022/06/06 11:49:01;;;;;;;3.50;1.60;;;29.30;48.60;;;;;;5067331;28;20230;-62
2022/06/06 11:51:30;;;;;;;4.57;1.60;;;30.20;46.40;;;;;;5059813;28;20179;-62
2022/06/06 11:54:30;;;;;;;2.77;1.43;;;30.40;44.10;;;;;;5056304;28;20179;-61
2022/06/06 11:57:16;;;;;;;3.27;1.50;;;30.90;44.40;;;;;;5065329;28;20185;-61
2022/06/06 12:00:14;;;;;;;2.20;1.50;;;31.30;44.40;;;;;;5085531;28;20206;-61
2022/06/06 12:02:46;;;;;;;3.60;1.87;;;32.40;39.60;;;;;;5057684;28;20239;-61
2022/06/06 12:05:45;;;;;;;4.17;1.63;;;34.20;37.70;;;;;;5065606;28;20259;-63
2022/06/06 12:08:23;;;;;;;1.93;1.43;;;35.80;35.00;;;;;;5054950;28;20300;-63
2022/06/06 12:11:13;;;;;;;2.80;1.23;;;38.10;30.70;;;;;;5057453;28;20189;-62
2022/06/06 12:13:58;;;;;;;2.30;1.10;;;39.40;31.40;;;;;;5061357;28;20198;-62
2022/06/06 12:16:46;;;;;;;2.65;1.27;;;40.60;29.70;;;;;;5090588;28;20186;-62
2022/06/06 12:19:30;;;;;;;3.63;1.10;;;40.00;27.30;;;;;;5062113;28;20289;-60
2022/06/06 12:21:58;;;;;;;2.20;1.02;;;40.80;25.50;;;;;;5060898;28;20208;-60
2022/06/06 12:24:39;;;;;;;3.30;1.35;;;42.10;26.90;;;;;;5057054;28;20258;-61
2022/06/06 12:27:46;;;;;;;4.47;1.50;;;41.50;25.30;;;;;;5051752;28;20193;-61
2022/06/06 12:30:40;;;;;;;3.88;1.85;;;39.20;28.00;;;;;;5059073;28;20272;-61
2022/06/06 12:33:44;;;;;;;3.50;1.25;;;39.40;29.50;;;;;;5066832;28;20186;-62
2022/06/06 12:36:43;;;;;;;5.57;1.13;;;38.90;30.40;;;;;;5055382;28;20174;-62
2022/06/06 12:39:15;;;;;;;3.65;1.23;;;37.80;32.70;;;;;;5090942;28;20194;-61
2022/06/06 12:42:19;;;;;;;4.28;1.10;;;39.10;30.20;;;;;;5057824;28;20199;-60
2022/06/06 12:44:53;;;;;;;1.50;1.23;;;40.70;28.80;;;;;;5061051;28;20207;-62
2022/06/06 12:47:40;;;;;;;1.23;1.10;;;41.30;26.20;;;;;;5051846;28;20250;-62
2022/06/06 12:50:19;;;;;;;8.98;2.63;;;43.40;27.30;;;;;;5054249;28;20190;-65
2022/06/06 12:52:48;;;;;;;4.03;1.70;;;42.30;29.70;;;;;;5063041;28;20170;-66
2022/06/06 12:58:35;;;;;;;1.52;1.20;;;37.60;35.70;;;;;;5057130;28;20223;-66
2022/06/06 13:04:11;;;;;;;4.10;1.27;;;35.10;38.60;;;;;;5063801;28;20192;-67
2022/06/06 13:06:43;;;;;;;2.42;1.38;;;34.80;40.10;;;;;;5054625;28;20311;-67
2022/06/06 13:09:20;;;;;;;4.80;1.20;;;35.20;40.20;;;;;;5062931;28;20280;-67
2022/06/06 13:12:18;;;;;;;2.22;1.38;;;36.20;38.00;;;;;;5063670;28;20181;-66
2022/06/06 13:15:07;;;;;;;1.77;1.30;;;36.00;32.80;;;;;;5065689;28;20185;-66
2022/06/06 13:18:01;;;;;;;2.65;1.33;;;33.90;36.50;;;;;;5061657;28;20194;-66
2022/06/06 13:20:43;;;;;;;2.63;1.40;;;34.20;36.90;;;;;;5052083;28;20170;-67
2022/06/06 13:23:21;;;;;;;3.05;1.30;;;35.20;38.30;;;;;;5054445;28;20262;-67
2022/06/06 13:26:11;;;;;;;1.92;1.35;;;35.30;35.80;;;;;;5060766;28;20182;-66
2022/06/06 13:29:03;;;;;;;9.27;1.60;;;34.20;38.20;;;;;;5055562;28;20191;-66
2022/06/06 13:31:42;;;;;;;1.17;1.08;;;33.80;39.70;;;;;;5046890;28;20198;-66
2022/06/06 13:34:13;;;;;;;4.40;1.20;;;33.20;37.40;;;;;;5054654;28;20178;-66
2022/06/06 13:36:50;;;;;;;3.40;1.40;;;32.20;41.80;;;;;;5067437;28;20201;-66
2022/06/06 13:39:46;;;;;;;5.13;1.57;;;31.50;44.50;;;;;;5058599;28;20214;-66
2022/06/06 13:42:18;;;;;;;4.43;1.57;;;30.80;45.40;;;;;;5060371;28;20178;-66
2022/06/06 13:44:45;;;;;;;3.13;1.40;;;30.10;46.30;;;;;;5069158;28;20181;-66
2022/06/06 13:47:49;;;;;;;10.37;1.97;;;29.70;48.80;;;;;;5059639;28;20214;-66
2022/06/06 13:50:28;;;;;;;1.30;1.20;;;29.50;48.20;;;;;;5068748;28;20271;-67
2022/06/06 13:53:10;;;;;;;3.73;1.90;;;30.60;45.50;;;;;;5059342;28;20187;-66
2022/06/06 13:55:39;;;;;;;3.77;1.60;;;31.70;43.20;;;;;;5063880;28;20186;-65
2022/06/06 13:58:22;;;;;;;1.70;1.33;;;32.30;43.90;;;;;;5062420;28;20217;-65
2022/06/06 14:01:05;;;;;;;1.50;1.20;;;31.90;39.70;;;;;;5062564;28;20186;-67
2022/06/06 14:03:37;;;;;;;1.53;1.33;;;31.70;38.00;;;;;;5070484;28;20178;-66
2022/06/06 14:06:38;;;;;;;2.10;1.20;;;31.70;38.80;;;;;;5066806;28;20178;-66
2022/06/06 14:09:04;;;;;;;2.37;1.27;;;32.00;39.80;;;;;;5058097;28;20189;-66
2022/06/06 14:11:48;;;;;;;2.30;1.40;;;32.50;37.20;;;;;;5082336;28;20186;-66
2022/06/06 14:14:17;;;;;;;1.70;1.60;;;32.70;39.60;;;;;;5067477;28;20190;-66
2022/06/06 14:16:51;;;;;;;5.00;1.80;;;32.80;36.60;;;;;;5065174;28;20340;-66
2022/06/06 14:19:23;;;;;;;2.07;1.20;;;32.60;40.40;;;;;;5060630;28;20197;-66
2022/06/06 14:21:56;;;;;;;1.13;1.03;;;32.50;40.40;;;;;;5056001;28;20190;-65
2022/06/06 14:24:27;;;;;;;1.73;1.20;;;32.00;41.00;;;;;;5065985;28;20190;-65
2022/06/06 14:26:55;;;;;;;2.87;1.23;;;31.60;39.80;;;;;;5063528;28;20200;-65